Time;durP1;ratioP1;P1;durP2;ratioP2;P2;SDS_P1;SDS_P2;PMS_P1;PMS_P2;Temp;Humidity;BMP_temperature;BMP_pressure;BME280_temperature;BME280_humidity;BME280_pressure;Samples;Min_cycle;Max_cycle;Signal;HPM_P1;HPM_P2
2023/04/24 00:02:10;;;;;;;9.52;6.15;;;;;;;13.16;58.05;94804.16;4981402;28;20219;-63
2023/04/24 00:04:40;;;;;;;6.68;5.63;;;;;;;13.26;58.03;94790.06;4978694;28;20203;-63
2023/04/24 00:07:06;;;;;;;6.57;5.90;;;;;;;13.17;58.50;94786.22;4975534;28;20223;-63
2023/04/24 00:09:33;;;;;;;5.40;4.90;;;;;;;13.17;58.14;94787.94;4979319;28;20195;-60
2023/04/24 00:12:02;;;;;;;9.60;6.57;;;;;;;12.95;58.77;94781.28;4979996;28;20207;-60
2023/04/24 00:14:29;;;;;;;7.47;5.90;;;;;;;12.88;59.02;94787.56;4980161;28;20593;-64
2023/04/24 00:16:55;;;;;;;7.20;5.93;;;;;;;13.04;59.34;94789.41;4976857;28;20285;-65
2023/04/24 00:19:23;;;;;;;9.50;5.63;;;;;;;12.90;59.36;94793.44;4978212;28;20236;-60
2023/04/24 00:21:50;;;;;;;5.88;5.30;;;;;;;12.89;59.78;94796.06;4979350;28;20266;-59
2023/04/24 00:24:17;;;;;;;11.77;5.95;;;;;;;12.85;59.89;94789.47;4979622;28;20295;-60
2023/04/24 00:26:44;;;;;;;7.82;5.30;;;;;;;12.63;60.63;94784.50;4979740;28;20208;-63
2023/04/24 00:29:12;;;;;;;6.95;4.93;;;;;;;12.68;60.09;94786.84;4980261;28;20204;-61
2023/04/24 00:31:39;;;;;;;11.38;4.22;;;;;;;12.59;58.84;94788.13;4978929;28;20269;-60
2023/04/24 00:34:06;;;;;;;5.72;4.53;;;;;;;12.61;59.08;94783.78;4980094;28;20211;-61
2023/04/24 00:36:33;;;;;;;6.10;4.93;;;;;;;12.74;58.92;94786.56;4975215;28;20214;-62
2023/04/24 00:38:59;;;;;;;5.47;4.85;;;;;;;12.83;59.07;94786.16;4978783;28;20228;-65
2023/04/24 00:41:26;;;;;;;5.32;4.93;;;;;;;12.86;59.43;94786.84;4979061;28;20273;-64
2023/04/24 00:43:53;;;;;;;6.28;5.35;;;;;;;13.01;60.64;94782.72;4979193;28;20669;-62
2023/04/24 00:46:22;;;;;;;6.28;5.65;;;;;;;13.12;61.35;94777.94;4977409;28;20857;-60
2023/04/24 00:48:49;;;;;;;5.13;4.25;;;;;;;13.14;59.64;94780.41;4978222;28;20290;-62
2023/04/24 00:51:15;;;;;;;4.28;3.97;;;;;;;13.21;59.16;94774.16;4979214;28;20314;-60
2023/04/24 00:53:42;;;;;;;5.38;4.93;;;;;;;13.22;59.72;94775.81;4978264;28;20263;-61
2023/04/24 00:56:09;;;;;;;7.30;5.00;;;;;;;13.09;60.01;94777.28;4978255;28;20756;-64
2023/04/24 00:58:36;;;;;;;6.03;5.50;;;;;;;13.12;60.22;94780.47;4977577;28;22822;-61
2023/04/24 01:01:06;;;;;;;7.28;5.30;;;;;;;13.14;60.54;94775.31;4976770;28;20708;-60
2023/04/24 01:03:36;;;;;;;7.72;5.85;;;;;;;13.17;61.91;94778.56;4976060;28;20207;-60
2023/04/24 01:06:04;;;;;;;6.32;5.63;;;;;;;13.21;62.33;94776.72;4977249;28;20230;-63
2023/04/24 01:08:31;;;;;;;9.93;6.00;;;;;;;13.20;64.39;94767.41;4976674;28;20319;-59
2023/04/24 01:10:58;;;;;;;7.38;6.25;;;;;;;13.36;66.02;94765.78;4978046;28;20757;-57
2023/04/24 01:13:25;;;;;;;9.43;5.85;;;;;;;13.39;66.17;94752.84;4977648;28;20208;-62
2023/04/24 01:15:52;;;;;;;6.30;5.30;;;;;;;13.39;65.45;94750.28;4977184;28;20290;-61
2023/04/24 01:18:19;;;;;;;6.63;5.45;;;;;;;13.28;65.03;94750.81;4978762;28;20255;-61
2023/04/24 01:20:47;;;;;;;5.88;5.43;;;;;;;13.48;64.70;94754.13;4975952;28;20331;-64
2023/04/24 01:23:16;;;;;;;6.78;5.22;;;;;;;13.28;62.04;94753.38;4977976;28;22485;-60
2023/04/24 01:25:43;;;;;;;5.75;4.53;;;;;;;13.09;61.66;94741.56;4978996;28;20334;-58
2023/04/24 01:28:10;;;;;;;9.23;5.13;;;;;;;12.82;63.13;94752.19;4978571;28;20269;-61
2023/04/24 01:30:37;;;;;;;5.57;4.68;;;;;;;12.57;63.14;94747.41;4977539;28;21084;-57
2023/04/24 01:33:04;;;;;;;6.25;4.45;;;;;;;12.53;61.49;94755.25;4977213;28;20950;-59
2023/04/24 01:35:30;;;;;;;4.75;4.00;;;;;;;12.47;60.76;94747.88;4979128;28;20208;-62
2023/04/24 01:37:57;;;;;;;12.20;4.47;;;;;;;12.56;61.05;94750.03;4978661;28;20231;-63
2023/04/24 01:40:25;;;;;;;4.53;3.85;;;;;;;12.62;61.18;94754.81;4975831;28;20370;-65
2023/04/24 01:42:52;;;;;;;5.05;4.55;;;;;;;12.41;61.34;94748.97;4978438;28;20295;-61
2023/04/24 01:45:19;;;;;;;6.00;3.92;;;;;;;12.36;62.18;94745.84;4976970;28;20305;-60
2023/04/24 01:47:46;;;;;;;4.72;4.30;;;;;;;12.26;62.34;94744.59;4977473;28;20241;-62
2023/04/24 01:50:13;;;;;;;6.82;5.10;;;;;;;12.12;63.15;94747.78;4977651;28;20910;-64
2023/04/24 01:52:40;;;;;;;6.75;4.93;;;;;;;12.11;63.67;94741.03;4977173;28;20322;-65
2023/04/24 01:55:08;;;;;;;5.20;4.22;;;;;;;12.24;63.44;94739.56;4977525;28;20637;-60
2023/04/24 01:57:36;;;;;;;5.00;4.60;;;;;;;12.14;63.92;94735.75;4976493;28;20257;-60
2023/04/24 02:00:05;;;;;;;12.57;5.40;;;;;;;12.14;63.60;94740.03;4976817;28;20334;-59
2023/04/24 02:02:32;;;;;;;6.30;4.97;;;;;;;12.13;63.42;94744.31;4977683;28;20212;-63
2023/04/24 02:04:59;;;;;;;5.22;4.82;;;;;;;12.05;64.07;94736.19;4976714;28;20684;-60
2023/04/24 02:07:26;;;;;;;5.03;4.57;;;;;;;12.06;64.76;94737.03;4977497;28;20336;-59
2023/04/24 02:09:53;;;;;;;7.57;5.15;;;;;;;12.01;64.65;94738.94;4977389;28;20772;-59
2023/04/24 02:12:19;;;;;;;5.95;5.43;;;;;;;11.94;64.97;94746.00;4976264;28;20239;-59
2023/04/24 02:14:47;;;;;;;6.90;5.05;;;;;;;11.93;65.03;94739.25;4978300;28;20325;-65
2023/04/24 02:17:15;;;;;;;7.25;5.35;;;;;;;11.88;64.65;94743.72;4978574;28;20349;-64
2023/04/24 02:19:42;;;;;;;5.85;5.35;;;;;;;11.88;64.08;94733.53;4976506;28;20808;-61
2023/04/24 02:22:10;;;;;;;6.60;5.90;;;;;;;11.95;64.75;94737.47;4977402;28;20661;-62
2023/04/24 02:24:37;;;;;;;7.10;6.40;;;;;;;11.86;66.31;94748.09;4977676;28;20208;-64
2023/04/24 02:27:04;;;;;;;6.65;6.10;;;;;;;11.91;66.78;94739.34;4978201;28;20699;-57
2023/04/24 02:29:30;;;;;;;9.63;6.82;;;;;;;11.90;67.99;94740.22;4976233;28;21099;-59
2023/04/24 02:31:59;;;;;;;6.65;6.00;;;;;;;11.92;67.83;94737.59;4978096;28;20282;-60
2023/04/24 02:34:26;;;;;;;7.03;6.35;;;;;;;11.69;68.07;94707.22;4977022;28;20698;-65
2023/04/24 02:36:53;;;;;;;8.32;7.05;;;;;;;11.77;68.01;94723.00;4976600;28;20326;-58
2023/04/24 02:39:20;;;;;;;7.22;6.63;;;;;;;11.70;68.07;94719.03;4976772;28;20223;-58
2023/04/24 02:41:47;;;;;;;7.55;6.93;;;;;;;11.69;67.53;94708.03;4975898;28;21564;-62
2023/04/24 02:44:13;;;;;;;7.53;6.97;;;;;;;11.75;67.92;94709.50;4978159;28;20705;-61
2023/04/24 02:46:41;;;;;;;8.45;7.65;;;;;;;11.66;68.29;94710.72;4976372;28;20716;-63
2023/04/24 02:49:09;;;;;;;13.23;7.65;;;;;;;11.61;68.49;94705.03;4977008;28;20214;-63
2023/04/24 02:51:37;;;;;;;12.35;8.43;;;;;;;11.56;69.34;94712.84;4976694;28;20338;-58
2023/04/24 02:54:04;;;;;;;9.48;8.18;;;;;;;11.65;69.53;94714.16;4977223;28;20704;-62
2023/04/24 02:56:31;;;;;;;9.02;7.90;;;;;;;11.74;70.28;94716.31;4976648;28;20250;-59
2023/04/24 02:58:58;;;;;;;10.18;7.65;;;;;;;11.61;70.59;94716.91;4976265;28;20816;-61
2023/04/24 03:01:24;;;;;;;12.52;9.00;;;;;;;11.53;70.92;94710.44;4976806;28;20350;-60
2023/04/24 03:03:51;;;;;;;9.85;7.80;;;;;;;11.51;70.96;94712.22;4975874;28;20972;-58
2023/04/24 03:06:20;;;;;;;11.13;8.77;;;;;;;11.47;70.96;94705.59;4976551;28;20296;-62
2023/04/24 03:08:47;;;;;;;9.05;8.30;;;;;;;11.53;71.52;94722.31;4977694;28;21238;-60
2023/04/24 03:11:14;;;;;;;9.23;8.30;;;;;;;11.52;71.53;94723.22;4977089;28;21862;-62
2023/04/24 03:13:40;;;;;;;8.73;8.02;;;;;;;11.43;71.81;94719.34;4976127;28;20298;-61
2023/04/24 03:16:07;;;;;;;9.60;8.65;;;;;;;11.33;71.77;94719.81;4977298;28;20271;-61
2023/04/24 03:18:34;;;;;;;9.23;8.43;;;;;;;11.37;71.23;94727.25;4977414;28;20235;-63
2023/04/24 03:21:01;;;;;;;9.57;8.55;;;;;;;11.32;71.51;94718.16;4977013;28;20281;-64
2023/04/24 03:23:29;;;;;;;9.98;7.72;;;;;;;11.35;71.36;94718.03;4976994;28;20729;-58
2023/04/24 03:25:56;;;;;;;10.70;8.20;;;;;;;11.32;71.75;94718.16;4979541;28;20656;-61
2023/04/24 03:28:24;;;;;;;9.40;8.25;;;;;;;11.31;71.48;94724.13;4979690;28;20208;-63
2023/04/24 03:30:51;;;;;;;12.50;8.52;;;;;;;11.32;71.19;94723.22;4982493;28;20239;-60
2023/04/24 03:33:18;;;;;;;9.55;8.52;;;;;;;11.53;70.68;94718.06;4977441;28;20403;-61
2023/04/24 03:35:45;;;;;;;11.55;8.75;;;;;;;11.53;70.69;94719.78;4980663;28;20293;-60
2023/04/24 03:38:12;;;;;;;9.07;8.18;;;;;;;11.59;70.42;94724.63;4979178;28;20298;-61
2023/04/24 03:40:40;;;;;;;13.55;7.97;;;;;;;11.65;70.17;94726.03;4979484;28;20231;-63
2023/04/24 03:43:06;;;;;;;12.15;8.60;;;;;;;11.67;70.09;94717.44;4980471;28;21626;-63
2023/04/24 03:45:33;;;;;;;13.20;8.88;;;;;;;11.68;69.85;94715.72;4980502;28;20346;-60
2023/04/24 03:48:00;;;;;;;8.90;8.13;;;;;;;11.80;69.83;94720.34;4980123;28;20844;-62
2023/04/24 03:50:28;;;;;;;10.07;8.68;;;;;;;11.87;69.52;94719.19;4980337;28;20342;-61
2023/04/24 03:52:55;;;;;;;12.02;7.75;;;;;;;11.99;69.22;94725.44;4980121;28;20298;-61
2023/04/24 03:55:22;;;;;;;12.57;8.35;;;;;;;12.05;69.32;94720.09;4979057;28;20330;-59
2023/04/24 03:57:50;;;;;;;14.80;8.57;;;;;;;12.05;69.04;94720.91;4979185;28;20623;-62
2023/04/24 04:00:18;;;;;;;11.73;8.07;;;;;;;12.18;68.73;94716.06;4979369;28;20228;-64
2023/04/24 04:02:45;;;;;;;19.63;8.80;;;;;;;12.20;68.45;94717.66;4980955;28;20208;-60
2023/04/24 04:05:11;;;;;;;15.90;9.77;;;;;;;12.31;67.83;94721.47;4976197;28;20860;-61
2023/04/24 04:07:38;;;;;;;10.52;8.50;;;;;;;12.29;67.62;94723.25;4979637;28;20761;-61
2023/04/24 04:10:06;;;;;;;16.25;9.00;;;;;;;12.51;66.63;94723.91;4978638;28;20235;-61
2023/04/24 04:12:33;;;;;;;12.20;9.57;;;;;;;12.56;65.90;94727.91;4979642;28;20200;-62
2023/04/24 04:15:01;;;;;;;14.52;8.38;;;;;;;12.62;65.53;94716.56;4977585;28;20333;-58
2023/04/24 04:17:28;;;;;;;21.63;12.98;;;;;;;12.75;65.07;94712.56;4979223;28;20231;-64
2023/04/24 04:19:56;;;;;;;27.83;17.70;;;;;;;12.77;65.04;94720.97;4978759;28;20656;-64
2023/04/24 04:22:22;;;;;;;38.17;21.92;;;;;;;12.88;64.88;94718.72;4979580;28;20627;-61
2023/04/24 04:24:50;;;;;;;21.95;14.35;;;;;;;13.05;63.95;94719.66;4978348;28;21263;-58
2023/04/24 04:27:18;;;;;;;10.40;9.07;;;;;;;13.31;62.79;94726.88;4980039;28;20208;-61
2023/04/24 04:29:45;;;;;;;11.50;8.07;;;;;;;13.36;63.04;94727.50;4979082;28;20207;-64
2023/04/24 04:32:13;;;;;;;12.00;9.30;;;;;;;13.32;62.80;94733.63;4978616;28;20274;-60
2023/04/24 04:34:39;;;;;;;23.75;9.52;;;;;;;13.35;62.88;94746.25;4977108;28;20302;-62
2023/04/24 04:37:06;;;;;;;26.05;10.57;;;;;;;13.40;62.77;94740.91;4978074;28;20210;-61
2023/04/24 04:39:33;;;;;;;14.77;9.63;;;;;;;13.45;63.29;94738.94;4977723;28;20231;-64
2023/04/24 04:42:00;;;;;;;13.93;8.98;;;;;;;13.52;62.81;94745.41;4977581;28;20294;-63
2023/04/24 04:44:28;;;;;;;13.68;10.13;;;;;;;13.73;62.28;94733.28;4977890;28;20211;-65
2023/04/24 04:46:56;;;;;;;23.52;9.93;;;;;;;13.78;61.90;94746.66;4976765;28;20704;-61
2023/04/24 04:49:24;;;;;;;14.82;9.43;;;;;;;13.95;61.05;94744.03;4978730;28;20215;-65
2023/04/24 04:51:51;;;;;;;17.60;10.30;;;;;;;14.17;60.14;94748.84;4977631;28;22395;-61
2023/04/24 04:54:18;;;;;;;14.27;9.90;;;;;;;14.41;59.70;94746.75;4979462;28;20200;-63
2023/04/24 04:56:45;;;;;;;18.48;9.35;;;;;;;14.49;58.92;94744.63;4979434;28;20309;-65
2023/04/24 04:59:12;;;;;;;21.33;9.50;;;;;;;14.52;58.97;94744.47;4978006;28;20318;-64
2023/04/24 05:01:39;;;;;;;24.13;10.48;;;;;;;14.51;59.51;94753.88;4978835;28;20710;-62
2023/04/24 05:04:05;;;;;;;19.13;9.90;;;;;;;14.61;59.28;94751.63;4978161;28;22880;-63
2023/04/24 05:06:33;;;;;;;14.30;8.95;;;;;;;14.86;58.17;94757.06;4976132;28;20290;-61
2023/04/24 05:09:00;;;;;;;20.00;8.35;;;;;;;15.19;56.66;94753.53;4978440;28;20325;-66
2023/04/24 05:11:27;;;;;;;19.45;10.05;;;;;;;15.17;56.52;94750.25;4979027;28;20649;-64
2023/04/24 05:13:54;;;;;;;17.08;8.57;;;;;;;15.06;56.27;94748.31;4979376;28;20212;-63
2023/04/24 05:16:21;;;;;;;12.02;8.20;;;;;;;15.02;56.55;94748.56;4978382;28;20195;-61
2023/04/24 05:18:48;;;;;;;12.48;7.97;;;;;;;15.10;55.89;94754.03;4977628;28;20783;-63
2023/04/24 05:21:14;;;;;;;14.30;7.35;;;;;;;15.16;55.21;94738.34;4977565;28;20334;-62
2023/04/24 05:23:42;;;;;;;10.02;7.78;;;;;;;15.13;55.71;94741.91;4978682;28;20212;-58
2023/04/24 05:26:09;;;;;;;17.83;8.57;;;;;;;15.20;55.58;94750.91;4978288;28;20211;-65
2023/04/24 05:28:36;;;;;;;13.38;8.35;;;;;;;15.40;55.04;94739.50;4977234;28;20655;-59
2023/04/24 05:31:03;;;;;;;11.95;7.75;;;;;;;15.80;52.75;94747.50;4979068;28;22153;-67
2023/04/24 05:33:30;;;;;;;11.98;6.70;;;;;;;16.22;50.90;94747.47;4977909;28;21136;-62
2023/04/24 05:35:57;;;;;;;16.25;6.43;;;;;;;16.51;49.01;94742.31;4977554;28;20207;-66
2023/04/24 05:38:24;;;;;;;13.77;6.20;;;;;;;16.75;48.94;94748.53;4977921;28;20230;-67
2023/04/24 05:40:52;;;;;;;10.45;6.53;;;;;;;17.05;48.37;94740.63;4978216;28;20346;-66
2023/04/24 05:43:19;;;;;;;10.90;6.40;;;;;;;17.13;48.27;94752.97;4978834;28;20754;-60
2023/04/24 05:45:46;;;;;;;14.68;7.45;;;;;;;17.21;47.11;94753.31;4977695;28;20218;-64
2023/04/24 05:48:12;;;;;;;14.27;6.63;;;;;;;16.76;46.67;94752.75;4975505;28;20379;-60
2023/04/24 05:50:39;;;;;;;14.25;6.70;;;;;;;15.94;48.59;94762.88;4978552;28;20227;-64
2023/04/24 05:53:06;;;;;;;18.33;7.72;;;;;;;15.67;49.85;94756.78;4979960;28;20226;-63
2023/04/24 05:55:33;;;;;;;11.73;6.25;;;;;;;15.53;50.01;94743.03;4978666;28;20230;-61
2023/04/24 05:58:01;;;;;;;9.45;6.45;;;;;;;15.92;49.44;94742.44;4978012;28;20307;-60
2023/04/24 06:00:29;;;;;;;9.95;6.47;;;;;;;18.50;43.86;94741.22;4976809;28;20297;-62
2023/04/24 06:02:55;;;;;;;10.95;7.15;;;;;;;20.93;38.86;94735.13;4977744;28;20211;-64
2023/04/24 06:05:22;;;;;;;11.13;7.05;;;;;;;22.96;35.74;94731.97;4978102;28;20218;-66
2023/04/24 06:07:49;;;;;;;10.32;6.72;;;;;;;24.21;32.30;94729.28;4977654;28;20377;-62
2023/04/24 06:10:16;;;;;;;10.63;6.75;;;;;;;23.97;31.98;94734.16;4978938;28;20214;-61
2023/04/24 06:12:43;;;;;;;14.75;6.75;;;;;;;23.83;31.94;94729.38;4976253;28;20301;-60
2023/04/24 06:15:12;;;;;;;8.10;6.10;;;;;;;24.67;31.25;94730.22;4977537;28;22818;-64
2023/04/24 06:17:39;;;;;;;8.07;5.75;;;;;;;26.56;28.19;94724.63;4978816;28;20212;-63
2023/04/24 06:20:07;;;;;;;12.98;7.65;;;;;;;27.96;26.18;94725.56;4977560;28;20800;-64
2023/04/24 06:22:35;;;;;;;8.25;5.45;;;;;;;28.71;24.80;94723.41;4979346;28;20199;-62
2023/04/24 06:25:02;;;;;;;8.40;4.97;;;;;;;29.05;25.22;94731.78;4976773;28;20747;-63
2023/04/24 06:27:28;;;;;;;7.63;5.18;;;;;;;29.30;24.17;94724.59;4977309;28;20208;-64
2023/04/24 06:29:55;;;;;;;7.38;5.22;;;;;;;29.57;24.29;94727.72;4977327;28;20208;-63
2023/04/24 06:32:25;;;;;;;6.20;4.90;;;;;;;28.97;24.01;94731.81;4978506;28;20253;-65
2023/04/24 06:34:52;;;;;;;8.32;5.10;;;;;;;27.36;26.05;94721.47;4979019;28;20207;-63
2023/04/24 06:37:19;;;;;;;8.80;5.13;;;;;;;27.51;26.47;94732.06;4977724;28;20286;-64
2023/04/24 06:39:46;;;;;;;8.07;6.25;;;;;;;28.30;26.06;94731.41;4977472;28;20744;-62
2023/04/24 06:42:13;;;;;;;14.40;8.85;;;;;;;30.70;23.19;94725.81;4978015;28;20351;-62
2023/04/24 06:44:41;;;;;;;15.98;10.15;;;;;;;33.20;20.93;94721.00;4978896;28;20244;-62
2023/04/24 06:47:08;;;;;;;10.00;6.60;;;;;;;34.19;19.94;94721.97;4977890;28;20208;-66
2023/04/24 06:49:37;;;;;;;10.38;6.05;;;;;;;36.13;18.87;94709.31;4977663;28;20208;-63
2023/04/24 06:52:04;;;;;;;6.03;5.22;;;;;;;38.06;16.97;94717.34;4975707;28;20224;-66
2023/04/24 06:54:32;;;;;;;8.43;6.65;;;;;;;38.72;15.96;94702.94;4977957;28;20252;-61
2023/04/24 06:57:00;;;;;;;9.77;6.63;;;;;;;37.58;16.56;94710.31;4976391;28;20211;-64
2023/04/24 06:59:27;;;;;;;9.77;6.32;;;;;;;37.79;16.34;94709.81;4978817;28;20685;-60
2023/04/24 07:01:53;;;;;;;9.45;6.30;;;;;;;36.96;17.12;94704.41;4980098;28;21463;-63
2023/04/24 07:04:20;;;;;;;6.82;6.03;;;;;;;37.28;16.96;94701.59;4982059;28;20212;-63
2023/04/24 07:06:51;;;;;;;7.80;5.95;;;;;;;36.98;17.58;94697.03;4980440;28;20398;-63
2023/04/24 07:09:18;;;;;;;7.43;6.90;;;;;;;35.24;18.10;94699.72;4981491;28;20816;-63
2023/04/24 07:11:45;;;;;;;8.82;6.05;;;;;;;32.87;20.12;94705.13;4979706;28;20205;-68
2023/04/24 07:14:12;;;;;;;13.80;8.98;;;;;;;33.08;20.74;94697.91;4980908;28;20216;-66
2023/04/24 07:16:38;;;;;;;8.43;5.78;;;;;;;35.17;18.48;94700.78;4980398;28;22286;-68
2023/04/24 07:19:05;;;;;;;6.20;5.68;;;;;;;35.05;18.86;94695.38;4980136;28;21273;-65
2023/04/24 07:21:32;;;;;;;9.52;6.80;;;;;;;32.34;20.73;94700.38;4978716;28;20799;-65
2023/04/24 07:24:00;;;;;;;7.78;6.05;;;;;;;29.47;23.88;94701.75;4981065;28;20219;-64
2023/04/24 07:26:28;;;;;;;6.85;5.68;;;;;;;28.16;25.30;94695.47;4982160;28;20212;-65
2023/04/24 07:28:55;;;;;;;12.55;6.03;;;;;;;30.20;23.86;94697.69;4981086;28;20329;-62
2023/04/24 07:31:21;;;;;;;6.93;5.93;;;;;;;32.16;21.68;94688.72;4979825;28;20211;-61
2023/04/24 07:33:48;;;;;;;7.28;5.72;;;;;;;33.45;20.56;94687.84;4980148;28;20211;-65
2023/04/24 07:36:18;;;;;;;7.50;6.57;;;;;;;34.86;18.89;94689.19;4980117;28;20242;-65
2023/04/24 07:38:45;;;;;;;15.30;6.20;;;;;;;34.74;18.95;94693.44;4981073;28;20327;-66
2023/04/24 07:41:13;;;;;;;10.32;5.65;;;;;;;35.18;19.12;94684.72;4979380;28;20317;-67
2023/04/24 07:43:40;;;;;;;10.30;5.50;;;;;;;35.36;19.03;94684.06;4980840;28;20295;-63
2023/04/24 07:46:07;;;;;;;6.22;5.63;;;;;;;37.17;17.51;94689.84;4980354;28;20219;-62
2023/04/24 07:48:34;;;;;;;6.32;5.78;;;;;;;38.32;16.86;94682.44;4980293;28;20212;-65
2023/04/24 07:51:01;;;;;;;6.72;5.53;;;;;;;38.75;16.08;94671.41;4979523;28;20722;-63
2023/04/24 07:53:28;;;;;;;5.95;5.22;;;;;;;39.22;15.80;94671.25;4980986;28;20211;-68
2023/04/24 07:55:55;;;;;;;7.82;6.03;;;;;;;41.04;15.21;94662.59;4979406;28;20262;-68
2023/04/24 07:58:23;;;;;;;6.18;5.68;;;;;;;41.31;13.98;94664.50;4980541;28;20615;-64
2023/04/24 08:00:50;;;;;;;6.22;5.07;;;;;;;41.15;14.27;94662.69;4980000;28;20227;-62
2023/04/24 08:03:19;;;;;;;8.80;5.95;;;;;;;42.22;14.22;94665.28;4980693;28;20208;-70
2023/04/24 08:05:46;;;;;;;8.13;5.40;;;;;;;43.03;13.47;94657.69;4979056;28;20235;-67
2023/04/24 08:08:13;;;;;;;7.80;5.28;;;;;;;39.67;15.35;94668.63;4979873;28;20341;-61
2023/04/24 08:10:40;;;;;;;5.70;5.18;;;;;;;39.19;15.78;94660.28;4978611;28;20204;-67
2023/04/24 08:13:06;;;;;;;7.22;5.07;;;;;;;38.90;15.28;94660.25;4978336;28;20677;-65
2023/04/24 08:15:35;;;;;;;7.30;5.15;;;;;;;38.63;15.87;94646.72;4979745;28;20299;-61
2023/04/24 08:18:01;;;;;;;9.65;5.32;;;;;;;38.98;15.39;94651.91;4979766;28;20346;-68
2023/04/24 08:20:28;;;;;;;5.82;5.32;;;;;;;39.39;15.35;94645.50;4980154;28;20756;-69
2023/04/24 08:22:56;;;;;;;9.18;5.63;;;;;;;40.15;14.78;94645.94;4979164;28;20236;-68
2023/04/24 08:25:24;;;;;;;6.10;5.55;;;;;;;41.45;13.93;94641.69;4979499;28;20728;-66
2023/04/24 08:27:51;;;;;;;9.27;5.43;;;;;;;41.31;13.84;94643.16;4979405;28;20354;-68
2023/04/24 08:30:18;;;;;;;12.07;5.82;;;;;;;40.36;14.82;94634.56;4980226;28;20696;-68
2023/04/24 08:32:46;;;;;;;6.20;4.88;;;;;;;40.05;15.56;94635.19;4977762;28;20239;-61
2023/04/24 08:35:13;;;;;;;9.48;4.68;;;;;;;41.15;15.09;94638.69;4978052;28;20262;-68
2023/04/24 08:37:40;;;;;;;7.47;5.47;;;;;;;41.68;13.94;94636.03;4980044;28;20256;-68
2023/04/24 08:40:13;;;;;;;8.48;5.32;;;;;;;41.30;13.94;94622.88;4979899;28;20751;-69
2023/04/24 08:42:41;;;;;;;9.43;5.47;;;;;;;41.81;14.13;94623.34;4979481;28;20246;-65
2023/04/24 08:45:10;;;;;;;10.52;4.45;;;;;;;41.30;13.90;94615.69;4978925;28;20686;-66
2023/04/24 08:47:39;;;;;;;6.35;5.85;;;;;;;38.62;15.63;94617.72;4979528;28;20298;-60
2023/04/24 08:50:09;;;;;;;5.72;5.22;;;;;;;38.55;15.82;94611.75;4978731;28;20227;-66
2023/04/24 08:52:36;;;;;;;7.95;5.82;;;;;;;38.96;15.69;94608.84;4978507;28;20214;-66
2023/04/24 08:55:03;;;;;;;8.80;4.97;;;;;;;38.64;16.40;94605.03;4979100;28;20750;-62
2023/04/24 08:57:32;;;;;;;10.80;5.28;;;;;;;37.48;16.52;94601.38;4979312;28;20219;-67
2023/04/24 08:59:59;;;;;;;8.10;5.82;;;;;;;37.56;16.81;94595.75;4979929;28;20200;-67
2023/04/24 09:02:27;;;;;;;9.23;5.78;;;;;;;39.02;16.06;94591.16;4978288;28;20319;-63
2023/04/24 09:04:53;;;;;;;13.23;5.05;;;;;;;39.89;15.71;94585.44;4978027;28;20322;-64
2023/04/24 09:07:25;;;;;;;8.00;5.00;;;;;;;39.48;15.28;94579.47;4979522;28;20378;-70
2023/04/24 09:09:52;;;;;;;5.90;5.38;;;;;;;36.65;17.23;94577.44;4979067;28;20215;-65
2023/04/24 09:12:20;;;;;;;7.68;6.18;;;;;;;33.13;20.13;94584.91;4979721;28;20281;-65
2023/04/24 09:14:48;;;;;;;6.30;5.80;;;;;;;29.21;24.35;94588.72;4977816;28;20914;-60
2023/04/24 09:17:15;;;;;;;11.55;5.53;;;;;;;26.27;28.64;94584.28;4979078;28;20211;-65
2023/04/24 09:19:42;;;;;;;7.50;5.85;;;;;;;24.92;30.60;94586.56;4978567;28;20294;-67
2023/04/24 09:22:11;;;;;;;10.15;5.88;;;;;;;24.20;32.52;94582.25;4978043;28;20382;-67
2023/04/24 09:24:39;;;;;;;7.93;5.53;;;;;;;24.26;33.10;94576.50;4978096;28;20208;-65
2023/04/24 09:27:06;;;;;;;6.63;5.95;;;;;;;24.75;31.86;94582.16;4978190;28;20239;-64
2023/04/24 09:29:33;;;;;;;6.60;5.70;;;;;;;24.58;31.82;94573.41;4976931;28;20357;-60
2023/04/24 09:32:00;;;;;;;6.03;5.53;;;;;;;24.52;32.23;94571.41;4978388;28;20279;-64
2023/04/24 09:34:28;;;;;;;10.48;5.22;;;;;;;24.71;32.27;94562.66;4976796;28;20299;-62
2023/04/24 09:36:55;;;;;;;5.97;5.45;;;;;;;24.36;32.85;94564.28;4974662;28;20358;-66
2023/04/24 09:39:22;;;;;;;7.07;4.93;;;;;;;24.01;33.74;94553.78;4977956;28;20215;-64
2023/04/24 09:41:51;;;;;;;7.10;5.13;;;;;;;23.61;34.43;94567.91;4977321;28;20357;-62
2023/04/24 09:44:20;;;;;;;7.05;4.75;;;;;;;23.34;34.71;94571.25;4975732;28;20306;-64
2023/04/24 09:46:51;;;;;;;9.00;5.57;;;;;;;22.81;34.58;94563.13;4976043;28;20358;-59
2023/04/24 09:49:23;;;;;;;6.07;5.47;;;;;;;22.58;35.29;94567.75;4975806;28;20218;-66
2023/04/24 09:51:50;;;;;;;8.25;5.53;;;;;;;22.97;34.91;94567.78;4976542;28;20301;-59
2023/04/24 09:54:19;;;;;;;6.53;5.68;;;;;;;23.16;34.65;94561.72;4978174;28;20931;-64
2023/04/24 09:56:47;;;;;;;5.68;5.28;;;;;;;22.79;34.50;94557.25;4974671;28;20245;-63
2023/04/24 09:59:16;;;;;;;6.05;5.53;;;;;;;22.82;35.38;94544.03;4973439;28;20778;-68
2023/04/24 10:01:44;;;;;;;7.97;4.90;;;;;;;23.15;34.81;94550.53;4978496;28;20466;-66
2023/04/24 10:04:18;;;;;;;5.85;5.45;;;;;;;23.02;34.22;94547.41;4979580;28;20219;-66
2023/04/24 10:06:45;;;;;;;5.60;5.10;;;;;;;22.69;34.26;94546.91;4977128;28;20475;-69
2023/04/24 10:09:13;;;;;;;7.00;4.63;;;;;;;22.43;35.15;94548.38;4976817;28;20231;-61
2023/04/24 10:11:42;;;;;;;5.97;5.40;;;;;;;21.88;36.16;94531.66;4978461;28;20298;-68
2023/04/24 10:14:11;;;;;;;6.25;5.20;;;;;;;21.99;35.72;94529.78;4978663;28;20231;-67
2023/04/24 10:16:40;;;;;;;6.15;4.57;;;;;;;22.16;35.44;94524.94;4976799;28;20208;-63
2023/04/24 10:19:07;;;;;;;5.47;4.97;;;;;;;22.57;34.98;94514.31;4978311;28;21424;-64
2023/04/24 10:21:35;;;;;;;9.40;4.60;;;;;;;22.88;34.15;94509.81;4978552;28;20259;-64
2023/04/24 10:24:03;;;;;;;7.40;4.43;;;;;;;23.32;34.29;94512.69;4979112;28;20235;-66
2023/04/24 10:26:30;;;;;;;5.32;4.88;;;;;;;23.33;33.61;94509.16;4976394;28;20215;-61
2023/04/24 10:28:59;;;;;;;8.30;5.32;;;;;;;23.13;34.12;94505.81;4978525;28;20289;-63
2023/04/24 10:31:27;;;;;;;8.02;4.57;;;;;;;22.99;34.11;94503.66;4977984;28;20318;-63
2023/04/24 10:33:56;;;;;;;7.70;5.00;;;;;;;22.48;34.85;94501.38;4980990;28;20211;-67
2023/04/24 10:36:26;;;;;;;5.90;4.35;;;;;;;22.43;35.26;94511.31;4982592;28;20214;-62
2023/04/24 10:38:56;;;;;;;5.45;5.03;;;;;;;22.48;35.20;94498.78;4982425;28;20207;-67
2023/04/24 10:41:27;;;;;;;5.53;4.50;;;;;;;22.70;34.38;94495.91;4981016;28;20231;-67
2023/04/24 10:44:06;;;;;;;5.32;4.75;;;;;;;22.81;34.41;94485.41;4982531;28;20692;-61
2023/04/24 10:46:33;;;;;;;6.38;4.32;;;;;;;22.86;34.58;94483.22;4982819;28;20597;-66
2023/04/24 10:49:06;;;;;;;7.63;4.60;;;;;;;22.93;34.43;94479.13;4982163;28;20284;-61
2023/04/24 10:51:46;;;;;;;3.75;3.53;;;;;;;22.94;33.53;94480.75;4982215;28;20583;-63
2023/04/24 10:54:27;;;;;;;8.35;4.53;;;;;;;22.85;33.63;94480.78;4979644;28;20207;-65
2023/04/24 10:56:54;;;;;;;6.88;4.35;;;;;;;22.85;34.45;94479.00;4980763;28;20231;-67
2023/04/24 10:59:25;;;;;;;5.82;4.97;;;;;;;22.84;34.37;94479.13;4981463;28;20235;-60
2023/04/24 11:01:55;;;;;;;5.93;4.72;;;;;;;22.82;34.91;94479.28;4982051;28;20224;-66
2023/04/24 11:04:32;;;;;;;6.80;4.35;;;;;;;22.70;34.72;94475.19;4980688;28;20661;-63
2023/04/24 11:06:59;;;;;;;7.28;3.95;;;;;;;22.60;34.97;94482.13;4979984;28;20302;-68
2023/04/24 11:09:28;;;;;;;6.47;4.72;;;;;;;22.58;35.66;94484.06;4981662;28;20807;-62
2023/04/24 11:12:07;;;;;;;19.00;5.07;;;;;;;22.33;35.43;94480.25;4981955;28;20227;-69
2023/04/24 11:15:01;;;;;;;7.35;5.03;;;;;;;22.21;35.49;94482.16;4983520;28;20215;-65
2023/04/24 11:17:33;;;;;;;5.20;4.70;;;;;;;22.14;36.44;94495.78;4980914;28;20208;-60
2023/04/24 11:20:06;;;;;;;8.63;6.65;;;;;;;22.00;36.97;94530.59;4982620;28;21093;-65
2023/04/24 11:22:35;;;;;;;10.80;5.43;;;;;;;21.78;45.22;94567.03;4981581;28;20318;-63
2023/04/24 11:25:03;;;;;;;13.35;5.70;;;;;;;21.48;51.44;94549.75;4979947;28;20298;-65
2023/04/24 11:27:31;;;;;;;6.63;6.03;;;;;;;21.11;53.01;94533.88;4980061;28;20262;-62
2023/04/24 11:30:02;;;;;;;10.23;6.05;;;;;;;20.69;55.16;94515.81;4979369;28;20296;-65
2023/04/24 11:32:31;;;;;;;10.82;5.80;;;;;;;20.85;59.20;94525.72;4981427;28;20222;-64